sensor_id;sensor_type;location;lat;lon;timestamp;pressure;altitude;pressure_sealevel;temperature;humidity
49973;BME280;65693;49.798;10.968;2023-02-10T00:00:46;99953.66;;;5.81;51.14
49973;BME280;65693;49.798;10.968;2023-02-10T00:03:12;99960.59;;;5.85;50.83
49973;BME280;65693;49.798;10.968;2023-02-10T00:05:40;99965.88;;;5.84;50.85
49973;BME280;65693;49.798;10.968;2023-02-10T00:08:09;99957.13;;;5.82;51.26
49973;BME280;65693;49.798;10.968;2023-02-10T00:10:35;99960.59;;;5.85;50.88
49973;BME280;65693;49.798;10.968;2023-02-10T00:13:03;99957.13;;;5.83;51.13
49973;BME280;65693;49.798;10.968;2023-02-10T00:15:33;99961.56;;;5.80;51.05
49973;BME280;65693;49.798;10.968;2023-02-10T00:18:00;99953.75;;;5.75;51.16
49973;BME280;65693;49.798;10.968;2023-02-10T00:20:30;99954.69;;;5.73;51.14
49973;BME280;65693;49.798;10.968;2023-02-10T00:22:57;99956.47;;;5.70;51.19
49973;BME280;65693;49.798;10.968;2023-02-10T00:25:25;99956.47;;;5.70;51.04
49973;BME280;65693;49.798;10.968;2023-02-10T00:27:53;99958.22;;;5.68;51.21
49973;BME280;65693;49.798;10.968;2023-02-10T00:30:21;99960.84;;;5.72;50.98
49973;BME280;65693;49.798;10.968;2023-02-10T00:32:48;99966.94;;;5.72;50.83
49973;BME280;65693;49.798;10.968;2023-02-10T00:35:14;99968.75;;;5.68;50.98
49973;BME280;65693;49.798;10.968;2023-02-10T00:37:42;99965.28;;;5.66;50.96
49973;BME280;65693;49.798;10.968;2023-02-10T00:40:09;99967.94;;;5.65;51.04
49973;BME280;65693;49.798;10.968;2023-02-10T00:42:39;99980.22;;;5.64;50.95
49973;BME280;65693;49.798;10.968;2023-02-10T00:45:07;99990.72;;;5.66;50.95
49973;BME280;65693;49.798;10.968;2023-02-10T00:47:33;100000.38;;;5.65;50.90
49973;BME280;65693;49.798;10.968;2023-02-10T00:50:03;99996.03;;;5.63;51.02
49973;BME280;65693;49.798;10.968;2023-02-10T00:52:30;99985.59;;;5.58;50.83
49973;BME280;65693;49.798;10.968;2023-02-10T00:55:02;99989.06;;;5.59;50.86
49973;BME280;65693;49.798;10.968;2023-02-10T00:57:28;99998.72;;;5.58;50.90
49973;BME280;65693;49.798;10.968;2023-02-10T01:00:01;99991.78;;;5.54;51.21
49973;BME280;65693;49.798;10.968;2023-02-10T01:02:30;99992.69;;;5.53;51.08
49973;BME280;65693;49.798;10.968;2023-02-10T01:04:59;100000.56;;;5.53;50.89
49973;BME280;65693;49.798;10.968;2023-02-10T01:07:29;99995.31;;;5.53;50.80
49973;BME280;65693;49.798;10.968;2023-02-10T01:09:56;100003.22;;;5.50;51.00
49973;BME280;65693;49.798;10.968;2023-02-10T01:12:24;100005.00;;;5.49;50.90
49973;BME280;65693;49.798;10.968;2023-02-10T01:14:50;100012.84;;;5.51;50.81
49973;BME280;65693;49.798;10.968;2023-02-10T01:17:21;100014.63;;;5.50;50.96
49973;BME280;65693;49.798;10.968;2023-02-10T01:19:47;100014.69;;;5.46;50.91
49973;BME280;65693;49.798;10.968;2023-02-10T01:22:17;100016.41;;;5.47;50.95
49973;BME280;65693;49.798;10.968;2023-02-10T01:24:46;100024.34;;;5.45;50.83
49973;BME280;65693;49.798;10.968;2023-02-10T01:27:16;100020.00;;;5.42;50.84
49973;BME280;65693;49.798;10.968;2023-02-10T01:29:42;100032.25;;;5.42;51.05
49973;BME280;65693;49.798;10.968;2023-02-10T01:32:10;100020.00;;;5.41;50.78
49973;BME280;65693;49.798;10.968;2023-02-10T01:34:39;100022.66;;;5.38;50.88
49973;BME280;65693;49.798;10.968;2023-02-10T01:37:07;100021.78;;;5.40;50.69
49973;BME280;65693;49.798;10.968;2023-02-10T01:39:35;100012.16;;;5.38;50.72
49973;BME280;65693;49.798;10.968;2023-02-10T01:42:04;100018.31;;;5.35;50.93
49973;BME280;65693;49.798;10.968;2023-02-10T01:45:09;100010.41;;;5.37;50.85
49973;BME280;65693;49.798;10.968;2023-02-10T01:47:41;100017.41;;;5.38;50.74
49973;BME280;65693;49.798;10.968;2023-02-10T01:50:12;100011.31;;;5.34;50.89
49973;BME280;65693;49.798;10.968;2023-02-10T01:52:41;100013.94;;;5.34;50.68
49973;BME280;65693;49.798;10.968;2023-02-10T01:55:10;100013.09;;;5.32;50.81
49973;BME280;65693;49.798;10.968;2023-02-10T01:57:41;100009.63;;;5.30;50.75
49973;BME280;65693;49.798;10.968;2023-02-10T02:00:11;100010.56;;;5.26;50.84
49973;BME280;65693;49.798;10.968;2023-02-10T02:02:42;100017.56;;;5.25;51.07
49973;BME280;65693;49.798;10.968;2023-02-10T02:08:13;100014.94;;;5.25;50.62
49973;BME280;65693;49.798;10.968;2023-02-10T02:10:54;100017.56;;;5.25;50.80
49973;BME280;65693;49.798;10.968;2023-02-10T02:13:31;100020.25;;;5.24;50.74
49973;BME280;65693;49.798;10.968;2023-02-10T02:16:09;100029.91;;;5.19;51.10
49973;BME280;65693;49.798;10.968;2023-02-10T02:18:42;100025.53;;;5.21;50.60
49973;BME280;65693;49.798;10.968;2023-02-10T02:21:34;100024.66;;;5.19;50.73
49973;BME280;65693;49.798;10.968;2023-02-10T02:27:34;100026.44;;;5.18;50.89
49973;BME280;65693;49.798;10.968;2023-02-10T02:30:38;100033.47;;;5.16;50.87
49973;BME280;65693;49.798;10.968;2023-02-10T02:33:14;100025.59;;;5.14;50.86
49973;BME280;65693;49.798;10.968;2023-02-10T02:35:52;100022.06;;;5.17;50.99
49973;BME280;65693;49.798;10.968;2023-02-10T02:38:23;100023.00;;;5.13;50.71
49973;BME280;65693;49.798;10.968;2023-02-10T02:40:50;100028.25;;;5.13;50.75
49973;BME280;65693;49.798;10.968;2023-02-10T02:43:22;100025.63;;;5.11;50.95
49973;BME280;65693;49.798;10.968;2023-02-10T02:45:54;100022.16;;;5.11;50.78
49973;BME280;65693;49.798;10.968;2023-02-10T02:48:40;100030.94;;;5.08;50.86
49973;BME280;65693;49.798;10.968;2023-02-10T02:51:20;100028.31;;;5.07;50.78
49973;BME280;65693;49.798;10.968;2023-02-10T02:54:00;100029.19;;;5.07;50.70
49973;BME280;65693;49.798;10.968;2023-02-10T02:56:40;100027.41;;;5.09;50.81
49973;BME280;65693;49.798;10.968;2023-02-10T02:59:15;100024.88;;;5.03;50.88
49973;BME280;65693;49.798;10.968;2023-02-10T03:01:49;100019.59;;;5.05;50.86
49973;BME280;65693;49.798;10.968;2023-02-10T03:04:26;100018.72;;;5.04;50.76
49973;BME280;65693;49.798;10.968;2023-02-10T03:06:53;100024.00;;;5.04;50.90
49973;BME280;65693;49.798;10.968;2023-02-10T03:09:20;100009.13;;;5.00;51.06
49973;BME280;65693;49.798;10.968;2023-02-10T03:11:47;100017.00;;;5.03;50.83
49973;BME280;65693;49.798;10.968;2023-02-10T03:14:14;100019.63;;;5.02;50.79
49973;BME280;65693;49.798;10.968;2023-02-10T03:16:40;100024.03;;;4.99;50.71
49973;BME280;65693;49.798;10.968;2023-02-10T03:19:07;100027.56;;;4.98;50.92
49973;BME280;65693;49.798;10.968;2023-02-10T03:21:35;100033.63;;;5.04;50.67
49973;BME280;65693;49.798;10.968;2023-02-10T03:24:04;100030.16;;;5.00;50.69
49973;BME280;65693;49.798;10.968;2023-02-10T03:26:31;100030.19;;;4.97;50.90
49973;BME280;65693;49.798;10.968;2023-02-10T03:28:58;100031.97;;;4.96;50.85
49973;BME280;65693;49.798;10.968;2023-02-10T03:31:26;100032.84;;;4.94;50.99
49973;BME280;65693;49.798;10.968;2023-02-10T03:33:53;100032.81;;;4.97;50.75
49973;BME280;65693;49.798;10.968;2023-02-10T03:36:21;100040.75;;;4.94;51.02
49973;BME280;65693;49.798;10.968;2023-02-10T03:38:51;100036.38;;;4.94;50.71
49973;BME280;65693;49.798;10.968;2023-02-10T03:41:17;100038.16;;;4.91;50.94
49973;BME280;65693;49.798;10.968;2023-02-10T03:43:45;100033.75;;;4.93;50.65
49973;BME280;65693;49.798;10.968;2023-02-10T03:46:11;100036.47;;;4.87;51.03
49973;BME280;65693;49.798;10.968;2023-02-10T03:48:41;100039.09;;;4.87;50.96
49973;BME280;65693;49.798;10.968;2023-02-10T03:51:08;100042.56;;;4.89;50.74
49973;BME280;65693;49.798;10.968;2023-02-10T03:53:38;100045.19;;;4.87;50.93
49973;BME280;65693;49.798;10.968;2023-02-10T03:56:08;100044.31;;;4.88;50.76
49973;BME280;65693;49.798;10.968;2023-02-10T03:58:37;100047.81;;;4.89;50.58
49973;BME280;65693;49.798;10.968;2023-02-10T04:01:11;100055.69;;;4.85;50.58
49973;BME280;65693;49.798;10.968;2023-02-10T04:03:39;100063.63;;;4.84;50.83
49973;BME280;65693;49.798;10.968;2023-02-10T04:06:06;100060.16;;;4.82;50.85
49973;BME280;65693;49.798;10.968;2023-02-10T04:08:35;100065.41;;;4.82;50.81
49973;BME280;65693;49.798;10.968;2023-02-10T04:11:03;100061.88;;;4.81;50.79
49973;BME280;65693;49.798;10.968;2023-02-10T04:13:32;100066.28;;;4.81;50.67
49973;BME280;65693;49.798;10.968;2023-02-10T04:16:04;100068.03;;;4.80;50.74
49973;BME280;65693;49.798;10.968;2023-02-10T04:18:32;100079.41;;;4.81;50.66
49973;BME280;65693;49.798;10.968;2023-02-10T04:21:01;100074.19;;;4.78;50.75
49973;BME280;65693;49.798;10.968;2023-02-10T04:23:28;100075.06;;;4.80;50.65
49973;BME280;65693;49.798;10.968;2023-02-10T04:25:56;100075.09;;;4.75;50.51
49973;BME280;65693;49.798;10.968;2023-02-10T04:28:25;100071.56;;;4.76;50.44
49973;BME280;65693;49.798;10.968;2023-02-10T04:30:58;100075.94;;;4.76;50.79
49973;BME280;65693;49.798;10.968;2023-02-10T04:33:25;100080.34;;;4.75;50.58
49973;BME280;65693;49.798;10.968;2023-02-10T04:35:55;100077.72;;;4.75;50.49
49973;BME280;65693;49.798;10.968;2023-02-10T04:38:23;100071.66;;;4.68;50.43
49973;BME280;65693;49.798;10.968;2023-02-10T04:40:54;100075.13;;;4.72;50.74
49973;BME280;65693;49.798;10.968;2023-02-10T04:43:21;100075.16;;;4.66;50.71
49973;BME280;65693;49.798;10.968;2023-02-10T04:45:47;100086.53;;;4.69;50.90
49973;BME280;65693;49.798;10.968;2023-02-10T04:48:16;100076.91;;;4.67;50.70
49973;BME280;65693;49.798;10.968;2023-02-10T04:50:46;100083.91;;;4.71;50.39
49973;BME280;65693;49.798;10.968;2023-02-10T04:53:14;100087.41;;;4.67;50.62
49973;BME280;65693;49.798;10.968;2023-02-10T04:55:43;100095.25;;;4.71;50.38
49973;BME280;65693;49.798;10.968;2023-02-10T04:58:10;100093.56;;;4.66;50.56
49973;BME280;65693;49.798;10.968;2023-02-10T05:00:38;100088.34;;;4.64;50.80
49973;BME280;65693;49.798;10.968;2023-02-10T05:03:05;100092.75;;;4.62;50.87
49973;BME280;65693;49.798;10.968;2023-02-10T05:05:36;100093.59;;;4.64;50.53
49973;BME280;65693;49.798;10.968;2023-02-10T05:08:04;100096.22;;;4.64;50.68
49973;BME280;65693;49.798;10.968;2023-02-10T05:10:31;100102.34;;;4.63;50.41
49973;BME280;65693;49.798;10.968;2023-02-10T05:12:59;100099.72;;;4.62;50.58
49973;BME280;65693;49.798;10.968;2023-02-10T05:15:25;100105.88;;;4.59;50.36
49973;BME280;65693;49.798;10.968;2023-02-10T05:17:53;100107.59;;;4.62;50.49
49973;BME280;65693;49.798;10.968;2023-02-10T05:20:21;100098.00;;;4.61;50.61
49973;BME280;65693;49.798;10.968;2023-02-10T05:22:51;100105.91;;;4.58;50.65
49973;BME280;65693;49.798;10.968;2023-02-10T05:25:19;100112.03;;;4.56;50.58
49973;BME280;65693;49.798;10.968;2023-02-10T05:27:46;100114.66;;;4.56;50.42
49973;BME280;65693;49.798;10.968;2023-02-10T05:30:13;100118.16;;;4.59;50.66
49973;BME280;65693;49.798;10.968;2023-02-10T05:32:42;100119.03;;;4.58;50.42
49973;BME280;65693;49.798;10.968;2023-02-10T05:35:10;100117.28;;;4.56;50.79
49973;BME280;65693;49.798;10.968;2023-02-10T05:37:38;100114.66;;;4.56;50.32
49973;BME280;65693;49.798;10.968;2023-02-10T05:40:10;100118.19;;;4.54;50.54
49973;BME280;65693;49.798;10.968;2023-02-10T05:42:38;100118.19;;;4.54;50.47
49973;BME280;65693;49.798;10.968;2023-02-10T05:45:08;100118.19;;;4.55;50.32
49973;BME280;65693;49.798;10.968;2023-02-10T05:47:38;100121.69;;;4.51;50.82
49973;BME280;65693;49.798;10.968;2023-02-10T05:50:05;100131.31;;;4.54;50.62
49973;BME280;65693;49.798;10.968;2023-02-10T05:52:34;100124.31;;;4.54;50.38
49973;BME280;65693;49.798;10.968;2023-02-10T05:55:00;100132.19;;;4.54;50.54
49973;BME280;65693;49.798;10.968;2023-02-10T05:57:31;100137.44;;;4.53;50.44
49973;BME280;65693;49.798;10.968;2023-02-10T05:59:58;100136.56;;;4.52;50.57
49973;BME280;65693;49.798;10.968;2023-02-10T06:02:26;100135.75;;;4.49;50.58
49973;BME280;65693;49.798;10.968;2023-02-10T06:04:56;100137.47;;;4.50;50.46
49973;BME280;65693;49.798;10.968;2023-02-10T06:07:22;100137.50;;;4.47;50.55
49973;BME280;65693;49.798;10.968;2023-02-10T06:09:49;100144.47;;;4.51;50.47
49973;BME280;65693;49.798;10.968;2023-02-10T06:12:18;100144.44;;;4.52;50.53
49973;BME280;65693;49.798;10.968;2023-02-10T06:14:50;100149.72;;;4.49;50.91
49973;BME280;65693;49.798;10.968;2023-02-10T06:17:18;100154.16;;;4.46;50.80
49973;BME280;65693;49.798;10.968;2023-02-10T06:19:46;100159.41;;;4.46;51.04
49973;BME280;65693;49.798;10.968;2023-02-10T06:22:14;100154.06;;;4.56;50.41
49973;BME280;65693;49.798;10.968;2023-02-10T06:24:41;100168.13;;;4.46;50.80
49973;BME280;65693;49.798;10.968;2023-02-10T06:27:09;100168.97;;;4.51;50.78
49973;BME280;65693;49.798;10.968;2023-02-10T06:29:41;100164.59;;;4.50;50.65
49973;BME280;65693;49.798;10.968;2023-02-10T06:32:10;100172.53;;;4.44;50.90
49973;BME280;65693;49.798;10.968;2023-02-10T06:34:37;100170.75;;;4.46;50.53
49973;BME280;65693;49.798;10.968;2023-02-10T06:37:07;100171.66;;;4.42;50.68
49973;BME280;65693;49.798;10.968;2023-02-10T06:39:33;100176.03;;;4.43;50.79
49973;BME280;65693;49.798;10.968;2023-02-10T06:42:00;100174.28;;;4.42;50.65
49973;BME280;65693;49.798;10.968;2023-02-10T06:44:28;100184.78;;;4.40;50.71
49973;BME280;65693;49.798;10.968;2023-02-10T06:46:57;100188.28;;;4.42;50.74
49973;BME280;65693;49.798;10.968;2023-02-10T06:49:29;100188.31;;;4.41;50.67
49973;BME280;65693;49.798;10.968;2023-02-10T06:51:59;100178.69;;;4.38;50.75
49973;BME280;65693;49.798;10.968;2023-02-10T06:54:26;100187.41;;;4.40;50.69
49973;BME280;65693;49.798;10.968;2023-02-10T06:56:55;100181.28;;;4.41;50.56
49973;BME280;65693;49.798;10.968;2023-02-10T06:59:24;100179.56;;;4.39;50.59
49973;BME280;65693;49.798;10.968;2023-02-10T07:01:52;100175.19;;;4.36;50.96
49973;BME280;65693;49.798;10.968;2023-02-10T07:04:27;100172.56;;;4.36;51.14
49973;BME280;65693;49.798;10.968;2023-02-10T07:06:55;100180.47;;;4.38;50.68
49973;BME280;65693;49.798;10.968;2023-02-10T07:09:22;100193.59;;;4.36;50.82
49973;BME280;65693;49.798;10.968;2023-02-10T07:11:50;100197.09;;;4.34;50.90
49973;BME280;65693;49.798;10.968;2023-02-10T07:14:18;100193.59;;;4.36;50.69
49973;BME280;65693;49.798;10.968;2023-02-10T07:16:46;100192.72;;;4.34;51.06
49973;BME280;65693;49.798;10.968;2023-02-10T07:19:14;100195.34;;;4.34;51.08
49973;BME280;65693;49.798;10.968;2023-02-10T07:21:43;100192.69;;;4.36;50.72
49973;BME280;65693;49.798;10.968;2023-02-10T07:24:12;100201.44;;;4.35;51.10
49973;BME280;65693;49.798;10.968;2023-02-10T07:26:41;100200.59;;;4.34;51.08
49973;BME280;65693;49.798;10.968;2023-02-10T07:29:08;100198.81;;;4.35;51.04
49973;BME280;65693;49.798;10.968;2023-02-10T07:31:38;100203.22;;;4.34;51.06
49973;BME280;65693;49.798;10.968;2023-02-10T07:34:05;100205.78;;;4.40;50.96
49973;BME280;65693;49.798;10.968;2023-02-10T07:36:32;100198.84;;;4.36;50.98
49973;BME280;65693;49.798;10.968;2023-02-10T07:39:04;100202.34;;;4.37;50.96
49973;BME280;65693;49.798;10.968;2023-02-10T07:41:38;100195.31;;;4.36;50.91
49973;BME280;65693;49.798;10.968;2023-02-10T07:44:05;100200.56;;;4.36;51.25
49973;BME280;65693;49.798;10.968;2023-02-10T07:46:32;100215.47;;;4.34;51.05
49973;BME280;65693;49.798;10.968;2023-02-10T07:49:01;100209.34;;;4.32;51.09
49973;BME280;65693;49.798;10.968;2023-02-10T07:51:28;100204.97;;;4.35;51.24
49973;BME280;65693;49.798;10.968;2023-02-10T07:53:55;100203.19;;;4.36;51.22
49973;BME280;65693;49.798;10.968;2023-02-10T07:56:28;100213.69;;;4.36;51.19
49973;BME280;65693;49.798;10.968;2023-02-10T07:58:56;100202.34;;;4.34;50.93
49973;BME280;65693;49.798;10.968;2023-02-10T08:01:25;100214.56;;;4.35;51.10
49973;BME280;65693;49.798;10.968;2023-02-10T08:03:52;100210.25;;;4.31;51.27
49973;BME280;65693;49.798;10.968;2023-02-10T08:06:20;100211.09;;;4.34;51.18
49973;BME280;65693;49.798;10.968;2023-02-10T08:08:46;100211.06;;;4.36;51.11
49973;BME280;65693;49.798;10.968;2023-02-10T08:11:14;100213.69;;;4.36;51.32
49973;BME280;65693;49.798;10.968;2023-02-10T08:13:45;100216.31;;;4.36;50.81
49973;BME280;65693;49.798;10.968;2023-02-10T08:16:11;100220.72;;;4.37;50.86
49973;BME280;65693;49.798;10.968;2023-02-10T08:18:39;100218.94;;;4.37;50.92
49973;BME280;65693;49.798;10.968;2023-02-10T08:21:06;100223.34;;;4.37;50.87
49973;BME280;65693;49.798;10.968;2023-02-10T08:23:36;100219.84;;;4.38;51.11
49973;BME280;65693;49.798;10.968;2023-02-10T08:26:04;100216.31;;;4.40;50.52
49973;BME280;65693;49.798;10.968;2023-02-10T08:28:33;100221.56;;;4.37;50.90
49973;BME280;65693;49.798;10.968;2023-02-10T08:31:06;100219.84;;;4.38;51.12
49973;BME280;65693;49.798;10.968;2023-02-10T08:33:34;100226.81;;;4.37;51.24
49973;BME280;65693;49.798;10.968;2023-02-10T08:36:03;100225.97;;;4.35;51.25
49973;BME280;65693;49.798;10.968;2023-02-10T08:38:30;100227.72;;;4.38;51.35
49973;BME280;65693;49.798;10.968;2023-02-10T08:40:58;100231.22;;;4.37;51.17
49973;BME280;65693;49.798;10.968;2023-02-10T08:43:25;100239.06;;;4.40;51.25
49973;BME280;65693;49.798;10.968;2023-02-10T08:45:54;100232.09;;;4.39;51.23
49973;BME280;65693;49.798;10.968;2023-02-10T08:48:22;100232.09;;;4.39;51.11
49973;BME280;65693;49.798;10.968;2023-02-10T08:50:51;100229.47;;;4.39;51.13
49973;BME280;65693;49.798;10.968;2023-02-10T08:53:20;100235.59;;;4.38;50.97
49973;BME280;65693;49.798;10.968;2023-02-10T08:55:55;100246.94;;;4.38;51.25
49973;BME280;65693;49.798;10.968;2023-02-10T08:58:22;100245.19;;;4.37;51.05
49973;BME280;65693;49.798;10.968;2023-02-10T09:00:50;100254.81;;;4.38;51.45
49973;BME280;65693;49.798;10.968;2023-02-10T09:03:19;100260.06;;;4.38;51.08
49973;BME280;65693;49.798;10.968;2023-02-10T09:05:52;100258.31;;;4.37;51.17
49973;BME280;65693;49.798;10.968;2023-02-10T09:08:18;100260.94;;;4.36;51.09
49973;BME280;65693;49.798;10.968;2023-02-10T09:10:46;100263.59;;;4.39;51.19
49973;BME280;65693;49.798;10.968;2023-02-10T09:13:14;100266.19;;;4.36;51.39
49973;BME280;65693;49.798;10.968;2023-02-10T09:15:41;100264.47;;;4.36;51.08
49973;BME280;65693;49.798;10.968;2023-02-10T09:18:10;100264.47;;;4.35;51.17
49973;BME280;65693;49.798;10.968;2023-02-10T09:20:39;100257.47;;;4.34;51.19
49973;BME280;65693;49.798;10.968;2023-02-10T09:23:07;100258.31;;;4.36;51.34
49973;BME280;65693;49.798;10.968;2023-02-10T09:25:35;100259.22;;;4.35;51.22
49973;BME280;65693;49.798;10.968;2023-02-10T09:28:04;100263.59;;;4.34;51.20
49973;BME280;65693;49.798;10.968;2023-02-10T09:30:35;100264.47;;;4.35;51.30
49973;BME280;65693;49.798;10.968;2023-02-10T09:33:01;100261.84;;;4.38;51.14
49973;BME280;65693;49.798;10.968;2023-02-10T09:35:29;100267.97;;;4.35;51.65
49973;BME280;65693;49.798;10.968;2023-02-10T09:37:58;100269.75;;;4.33;51.51
49973;BME280;65693;49.798;10.968;2023-02-10T09:40:32;100274.97;;;4.36;51.40
49973;BME280;65693;49.798;10.968;2023-02-10T09:43:14;100275.84;;;4.35;51.77
49973;BME280;65693;49.798;10.968;2023-02-10T09:45:53;100279.34;;;4.34;51.65
49973;BME280;65693;49.798;10.968;2023-02-10T09:48:29;100287.31;;;4.20;49.83
49973;BME280;65693;49.798;10.968;2023-02-10T09:51:10;100280.31;;;4.16;50.54
49973;BME280;65693;49.798;10.968;2023-02-10T09:53:40;100281.16;;;4.20;50.67
49973;BME280;65693;49.798;10.968;2023-02-10T09:56:15;100295.16;;;4.19;51.13
49973;BME280;65693;49.798;10.968;2023-02-10T09:58:44;100289.94;;;4.20;51.20
49973;BME280;65693;49.798;10.968;2023-02-10T10:01:16;100296.03;;;4.19;51.13
49973;BME280;65693;49.798;10.968;2023-02-10T10:03:47;100293.41;;;4.21;51.01
49973;BME280;65693;49.798;10.968;2023-02-10T10:06:21;100291.69;;;4.21;50.99
49973;BME280;65693;49.798;10.968;2023-02-10T10:08:58;100305.69;;;4.20;51.22
49973;BME280;65693;49.798;10.968;2023-02-10T10:11:35;100301.28;;;4.19;51.28
49973;BME280;65693;49.798;10.968;2023-02-10T10:14:08;100290.78;;;4.19;51.27
49973;BME280;65693;49.798;10.968;2023-02-10T10:17:06;100291.66;;;4.20;51.40
49973;BME280;65693;49.798;10.968;2023-02-10T10:19:45;100292.53;;;4.22;51.35
49973;BME280;65693;49.798;10.968;2023-02-10T10:22:32;100296.91;;;4.21;51.42
49973;BME280;65693;49.798;10.968;2023-02-10T10:25:43;100290.78;;;4.22;51.38
49973;BME280;65693;49.798;10.968;2023-02-10T10:28:22;100297.78;;;4.22;51.43
49973;BME280;65693;49.798;10.968;2023-02-10T10:30:56;100292.59;;;4.06;50.00
49973;BME280;65693;49.798;10.968;2023-02-10T10:33:29;100302.19;;;4.12;50.66
49973;BME280;65693;49.798;10.968;2023-02-10T10:35:58;100301.31;;;4.14;50.71
49973;BME280;65693;49.798;10.968;2023-02-10T10:38:29;100300.44;;;4.16;51.10
49973;BME280;65693;49.798;10.968;2023-02-10T10:41:03;100293.41;;;4.16;51.65
49973;BME280;65693;49.798;10.968;2023-02-10T10:43:41;100295.16;;;4.17;51.80
49973;BME280;65693;49.798;10.968;2023-02-10T10:46:14;100290.78;;;4.19;51.58
49973;BME280;65693;49.798;10.968;2023-02-10T10:48:43;100284.69;;;4.20;51.75
49973;BME280;65693;49.798;10.968;2023-02-10T10:51:11;100278.56;;;4.21;51.95
49973;BME280;65693;49.798;10.968;2023-02-10T10:53:42;100280.28;;;4.24;51.92
49973;BME280;65693;49.798;10.968;2023-02-10T10:56:17;100277.66;;;4.25;51.74
49973;BME280;65693;49.798;10.968;2023-02-10T10:58:49;100275.03;;;4.25;51.86
49973;BME280;65693;49.798;10.968;2023-02-10T11:01:31;100275.88;;;4.27;52.00
49973;BME280;65693;49.798;10.968;2023-02-10T11:04:05;100276.75;;;4.30;51.62
49973;BME280;65693;49.798;10.968;2023-02-10T11:06:35;100272.38;;;4.30;52.15
49973;BME280;65693;49.798;10.968;2023-02-10T11:09:06;100269.75;;;4.28;52.17
49973;BME280;65693;49.798;10.968;2023-02-10T11:11:35;100273.25;;;4.31;52.22
49973;BME280;65693;49.798;10.968;2023-02-10T11:14:14;100272.38;;;4.33;51.93
49973;BME280;65693;49.798;10.968;2023-02-10T11:16:51;100276.72;;;4.33;52.17
49973;BME280;65693;49.798;10.968;2023-02-10T11:19:21;100271.47;;;4.33;51.95
49973;BME280;65693;49.798;10.968;2023-02-10T11:21:50;100267.97;;;4.34;52.05
49973;BME280;65693;49.798;10.968;2023-02-10T11:24:22;100263.59;;;4.34;52.08
49973;BME280;65693;49.798;10.968;2023-02-10T11:26:58;100268.81;;;4.36;52.27
49973;BME280;65693;49.798;10.968;2023-02-10T11:29:33;100267.09;;;4.38;51.91
49973;BME280;65693;49.798;10.968;2023-02-10T11:32:00;100268.81;;;4.40;52.02
49973;BME280;65693;49.798;10.968;2023-02-10T11:34:32;100274.06;;;4.40;52.23
49973;BME280;65693;49.798;10.968;2023-02-10T11:37:10;100277.53;;;4.42;52.05
49973;BME280;65693;49.798;10.968;2023-02-10T11:39:40;100274.06;;;4.40;52.32
49973;BME280;65693;49.798;10.968;2023-02-10T11:42:17;100267.06;;;4.41;52.31
49973;BME280;65693;49.798;10.968;2023-02-10T11:45:00;100272.31;;;4.39;52.24
49973;BME280;65693;49.798;10.968;2023-02-10T11:47:29;100265.31;;;4.40;52.13
49973;BME280;65693;49.798;10.968;2023-02-10T11:49:58;100264.44;;;4.41;52.32
49973;BME280;65693;49.798;10.968;2023-02-10T11:52:28;100267.97;;;4.40;52.21
49973;BME280;65693;49.798;10.968;2023-02-10T11:54:58;100269.69;;;4.41;52.44
49973;BME280;65693;49.798;10.968;2023-02-10T11:57:37;100264.41;;;4.44;52.32
49973;BME280;65693;49.798;10.968;2023-02-10T12:00:34;100269.66;;;4.44;52.30
49973;BME280;65693;49.798;10.968;2023-02-10T12:03:31;100274.94;;;4.46;52.13
49973;BME280;65693;49.798;10.968;2023-02-10T12:06:05;100261.78;;;4.44;52.56
49973;BME280;65693;49.798;10.968;2023-02-10T12:08:40;100264.41;;;4.44;52.51
49973;BME280;65693;49.798;10.968;2023-02-10T12:11:16;100265.28;;;4.48;52.43
49973;BME280;65693;49.798;10.968;2023-02-10T12:13:54;100253.91;;;4.47;52.39
49973;BME280;65693;49.798;10.968;2023-02-10T12:16:35;100248.66;;;4.47;52.32
49973;BME280;65693;49.798;10.968;2023-02-10T12:19:12;100244.28;;;4.48;52.39
49973;BME280;65693;49.798;10.968;2023-02-10T12:21:55;100239.88;;;4.48;52.28
49973;BME280;65693;49.798;10.968;2023-02-10T12:27:37;100238.16;;;4.49;52.36
49973;BME280;65693;49.798;10.968;2023-02-10T12:30:15;100239.00;;;4.49;52.33
49973;BME280;65693;49.798;10.968;2023-02-10T12:32:59;100238.16;;;4.49;52.53
49973;BME280;65693;49.798;10.968;2023-02-10T12:35:39;100240.78;;;4.49;52.06
49973;BME280;65693;49.798;10.968;2023-02-10T12:38:24;100227.63;;;4.49;52.22
49973;BME280;65693;49.798;10.968;2023-02-10T12:41:05;100233.75;;;4.49;52.31
49973;BME280;65693;49.798;10.968;2023-02-10T12:43:43;100230.25;;;4.50;52.49
49973;BME280;65693;49.798;10.968;2023-02-10T12:46:24;100231.13;;;4.51;52.67
49973;BME280;65693;49.798;10.968;2023-02-10T13:01:44;100223.25;;;4.49;52.56
49973;BME280;65693;49.798;10.968;2023-02-10T13:04:18;100225.00;;;4.52;52.79
49973;BME280;65693;49.798;10.968;2023-02-10T13:06:53;100217.09;;;4.50;52.63
49973;BME280;65693;49.798;10.968;2023-02-10T13:09:27;100222.38;;;4.52;52.65
49973;BME280;65693;49.798;10.968;2023-02-10T13:12:11;100218.00;;;4.51;52.70
49973;BME280;65693;49.798;10.968;2023-02-10T13:14:44;100217.13;;;4.53;52.67
49973;BME280;65693;49.798;10.968;2023-02-10T13:17:15;100223.22;;;4.52;52.80
49973;BME280;65693;49.798;10.968;2023-02-10T13:19:50;100210.09;;;4.52;52.60
49973;BME280;65693;49.798;10.968;2023-02-10T13:22:26;100209.22;;;4.52;52.69
49973;BME280;65693;49.798;10.968;2023-02-10T13:25:07;100213.59;;;4.53;52.73
49973;BME280;65693;49.798;10.968;2023-02-10T13:27:48;100206.59;;;4.53;52.70
49973;BME280;65693;49.798;10.968;2023-02-10T13:30:41;100203.09;;;4.54;52.74
49973;BME280;65693;49.798;10.968;2023-02-10T13:33:20;100207.47;;;4.52;52.78